sensor_id;sensor_type;location;lat;lon;timestamp;pressure;altitude;pressure_sealevel;temperature;humidity
81641;BME280;74020;50.722;-1.944;2024-01-11T00:02:18;102625.77;;;1.75;84.22
81641;BME280;74020;50.722;-1.944;2024-01-11T00:04:44;102626.15;;;1.88;83.33
81641;BME280;74020;50.722;-1.944;2024-01-11T00:07:10;102626.38;;;1.85;83.23
81641;BME280;74020;50.722;-1.944;2024-01-11T00:09:39;102631.70;;;1.96;82.95
81641;BME280;74020;50.722;-1.944;2024-01-11T00:12:01;102637.29;;;1.76;84.51
81641;BME280;74020;50.722;-1.944;2024-01-11T00:14:27;102638.66;;;1.96;83.40
81641;BME280;74020;50.722;-1.944;2024-01-11T00:16:53;102640.69;;;1.89;83.39
81641;BME280;74020;50.722;-1.944;2024-01-11T00:19:18;102642.83;;;2.11;83.94
81641;BME280;74020;50.722;-1.944;2024-01-11T00:21:44;102639.33;;;2.33;82.71
81641;BME280;74020;50.722;-1.944;2024-01-11T00:24:10;102639.55;;;2.02;82.93
81641;BME280;74020;50.722;-1.944;2024-01-11T00:26:36;102637.63;;;2.10;84.12
81641;BME280;74020;50.722;-1.944;2024-01-11T00:29:01;102638.39;;;2.20;83.26
81641;BME280;74020;50.722;-1.944;2024-01-11T00:31:27;102636.80;;;2.13;82.63
81641;BME280;74020;50.722;-1.944;2024-01-11T00:33:53;102636.70;;;2.13;83.93
81641;BME280;74020;50.722;-1.944;2024-01-11T00:36:19;102641.84;;;2.09;83.15
81641;BME280;74020;50.722;-1.944;2024-01-11T00:38:44;102642.40;;;2.21;82.30
81641;BME280;74020;50.722;-1.944;2024-01-11T00:41:10;102638.97;;;2.14;83.57
81641;BME280;74020;50.722;-1.944;2024-01-11T00:43:36;102641.66;;;2.13;83.26
81641;BME280;74020;50.722;-1.944;2024-01-11T00:46:02;102643.77;;;2.34;82.08
81641;BME280;74020;50.722;-1.944;2024-01-11T00:48:27;102648.93;;;2.10;82.64
81641;BME280;74020;50.722;-1.944;2024-01-11T00:50:53;102652.26;;;2.23;82.56
81641;BME280;74020;50.722;-1.944;2024-01-11T00:53:19;102654.75;;;2.29;82.97
81641;BME280;74020;50.722;-1.944;2024-01-11T00:55:44;102657.72;;;2.09;83.57
81641;BME280;74020;50.722;-1.944;2024-01-11T00:58:10;102661.74;;;2.10;83.33
81641;BME280;74020;50.722;-1.944;2024-01-11T01:00:36;102665.22;;;2.17;82.22
81641;BME280;74020;50.722;-1.944;2024-01-11T01:03:01;102672.27;;;2.19;83.30
81641;BME280;74020;50.722;-1.944;2024-01-11T01:05:27;102674.13;;;2.26;82.83
81641;BME280;74020;50.722;-1.944;2024-01-11T01:07:53;102675.58;;;2.20;83.73
81641;BME280;74020;50.722;-1.944;2024-01-11T01:10:19;102680.05;;;2.28;83.22
81641;BME280;74020;50.722;-1.944;2024-01-11T01:12:44;102681.33;;;2.22;83.20
81641;BME280;74020;50.722;-1.944;2024-01-11T01:15:10;102679.90;;;2.14;82.82
81641;BME280;74020;50.722;-1.944;2024-01-11T01:17:36;102680.10;;;2.23;84.04
81641;BME280;74020;50.722;-1.944;2024-01-11T01:20:02;102682.30;;;2.21;83.62
81641;BME280;74020;50.722;-1.944;2024-01-11T01:22:27;102683.43;;;2.21;84.11
81641;BME280;74020;50.722;-1.944;2024-01-11T01:24:53;102685.82;;;2.26;83.53
81641;BME280;74020;50.722;-1.944;2024-01-11T01:27:19;102691.59;;;2.11;83.34
81641;BME280;74020;50.722;-1.944;2024-01-11T01:29:44;102695.40;;;2.23;83.10
81641;BME280;74020;50.722;-1.944;2024-01-11T01:32:10;102702.13;;;2.30;82.45
81641;BME280;74020;50.722;-1.944;2024-01-11T01:34:36;102703.68;;;2.19;83.32
81641;BME280;74020;50.722;-1.944;2024-01-11T01:37:02;102707.05;;;2.25;83.57
81641;BME280;74020;50.722;-1.944;2024-01-11T01:39:27;102712.40;;;2.24;83.44
81641;BME280;74020;50.722;-1.944;2024-01-11T01:41:53;102714.87;;;2.14;84.36
81641;BME280;74020;50.722;-1.944;2024-01-11T01:44:19;102716.76;;;2.05;84.20
81641;BME280;74020;50.722;-1.944;2024-01-11T01:46:44;102718.81;;;1.92;84.41
81641;BME280;74020;50.722;-1.944;2024-01-11T01:49:10;102718.83;;;1.97;84.95
81641;BME280;74020;50.722;-1.944;2024-01-11T01:51:35;102725.62;;;1.96;85.52
81641;BME280;74020;50.722;-1.944;2024-01-11T01:54:02;102719.77;;;1.91;85.32
81641;BME280;74020;50.722;-1.944;2024-01-11T01:56:27;102722.17;;;1.84;84.87
81641;BME280;74020;50.722;-1.944;2024-01-11T01:58:53;102726.71;;;2.01;84.36
81641;BME280;74020;50.722;-1.944;2024-01-11T02:01:19;102730.30;;;1.91;84.94
81641;BME280;74020;50.722;-1.944;2024-01-11T02:03:46;102733.05;;;2.02;84.08
81641;BME280;74020;50.722;-1.944;2024-01-11T02:06:10;102736.39;;;1.93;84.45
81641;BME280;74020;50.722;-1.944;2024-01-11T02:08:36;102740.16;;;1.97;83.78
81641;BME280;74020;50.722;-1.944;2024-01-11T02:11:01;102747.52;;;1.93;84.40
81641;BME280;74020;50.722;-1.944;2024-01-11T02:13:27;102750.08;;;1.86;84.67
81641;BME280;74020;50.722;-1.944;2024-01-11T02:15:53;102755.07;;;1.88;83.74
81641;BME280;74020;50.722;-1.944;2024-01-11T02:18:18;102756.45;;;1.98;83.41
81641;BME280;74020;50.722;-1.944;2024-01-11T02:20:44;102765.27;;;1.91;83.33
81641;BME280;74020;50.722;-1.944;2024-01-11T02:23:14;102776.46;;;1.87;82.97
81641;BME280;74020;50.722;-1.944;2024-01-11T02:25:35;102779.20;;;1.98;82.97
81641;BME280;74020;50.722;-1.944;2024-01-11T02:28:01;102778.77;;;2.02;82.28
81641;BME280;74020;50.722;-1.944;2024-01-11T02:30:26;102778.13;;;1.98;82.33
81641;BME280;74020;50.722;-1.944;2024-01-11T02:32:52;102781.57;;;2.09;81.83
81641;BME280;74020;50.722;-1.944;2024-01-11T02:35:18;102783.67;;;2.05;81.62
81641;BME280;74020;50.722;-1.944;2024-01-11T02:37:43;102787.68;;;2.06;81.58
81641;BME280;74020;50.722;-1.944;2024-01-11T02:40:08;102792.42;;;2.12;81.34
81641;BME280;74020;50.722;-1.944;2024-01-11T02:42:33;102798.15;;;2.29;80.48
81641;BME280;74020;50.722;-1.944;2024-01-11T02:44:59;102804.55;;;2.22;80.93
81641;BME280;74020;50.722;-1.944;2024-01-11T02:47:24;102809.82;;;2.24;81.62
81641;BME280;74020;50.722;-1.944;2024-01-11T02:49:50;102805.61;;;2.12;81.53
81641;BME280;74020;50.722;-1.944;2024-01-11T02:52:15;102811.45;;;2.24;81.51
81641;BME280;74020;50.722;-1.944;2024-01-11T02:54:40;102815.87;;;2.28;81.82
81641;BME280;74020;50.722;-1.944;2024-01-11T02:57:05;102820.79;;;2.23;82.02
81641;BME280;74020;50.722;-1.944;2024-01-11T02:59:32;102815.96;;;2.18;82.60
81641;BME280;74020;50.722;-1.944;2024-01-11T03:01:57;102815.49;;;2.31;83.08
81641;BME280;74020;50.722;-1.944;2024-01-11T03:04:23;102820.23;;;2.18;82.54
81641;BME280;74020;50.722;-1.944;2024-01-11T03:06:48;102823.59;;;2.48;81.53
81641;BME280;74020;50.722;-1.944;2024-01-11T03:09:14;102831.35;;;2.29;82.33
81641;BME280;74020;50.722;-1.944;2024-01-11T03:11:40;102836.11;;;2.46;81.46
81641;BME280;74020;50.722;-1.944;2024-01-11T03:14:06;102839.63;;;2.34;82.41
81641;BME280;74020;50.722;-1.944;2024-01-11T03:16:31;102845.01;;;2.35;82.80
81641;BME280;74020;50.722;-1.944;2024-01-11T03:18:57;102848.35;;;2.51;81.87
81641;BME280;74020;50.722;-1.944;2024-01-11T03:21:23;102849.53;;;2.68;79.91
81641;BME280;74020;50.722;-1.944;2024-01-11T03:23:49;102852.98;;;2.45;81.17
81641;BME280;74020;50.722;-1.944;2024-01-11T03:26:18;102856.28;;;2.67;79.77
81641;BME280;74020;50.722;-1.944;2024-01-11T03:28:39;102858.34;;;2.76;80.03
81641;BME280;74020;50.722;-1.944;2024-01-11T03:31:05;102858.53;;;2.65;80.54
81641;BME280;74020;50.722;-1.944;2024-01-11T03:33:31;102862.21;;;2.48;81.90
81641;BME280;74020;50.722;-1.944;2024-01-11T03:35:56;102862.29;;;2.62;80.32
81641;BME280;74020;50.722;-1.944;2024-01-11T03:38:22;102863.81;;;2.22;82.30
81641;BME280;74020;50.722;-1.944;2024-01-11T03:40:48;102861.96;;;2.37;81.61
81641;BME280;74020;50.722;-1.944;2024-01-11T03:43:17;102866.55;;;2.29;83.03
81641;BME280;74020;50.722;-1.944;2024-01-11T03:45:39;102872.02;;;2.29;83.34
81641;BME280;74020;50.722;-1.944;2024-01-11T03:48:05;102876.48;;;2.27;82.55
81641;BME280;74020;50.722;-1.944;2024-01-11T03:50:32;102878.46;;;2.30;82.58
81641;BME280;74020;50.722;-1.944;2024-01-11T03:52:56;102877.07;;;2.39;81.93
81641;BME280;74020;50.722;-1.944;2024-01-11T03:55:21;102875.02;;;2.64;79.70
81641;BME280;74020;50.722;-1.944;2024-01-11T03:57:47;102879.97;;;2.33;82.28
81641;BME280;74020;50.722;-1.944;2024-01-11T04:00:14;102877.39;;;2.23;82.05
81641;BME280;74020;50.722;-1.944;2024-01-11T04:02:39;102875.53;;;2.25;83.49
81641;BME280;74020;50.722;-1.944;2024-01-11T04:05:05;102877.97;;;2.22;83.46
81641;BME280;74020;50.722;-1.944;2024-01-11T04:07:30;102873.83;;;2.51;82.45
81641;BME280;74020;50.722;-1.944;2024-01-11T04:09:55;102876.88;;;2.33;82.86
81641;BME280;74020;50.722;-1.944;2024-01-11T04:12:21;102883.85;;;2.13;83.44
81641;BME280;74020;50.722;-1.944;2024-01-11T04:14:47;102886.67;;;2.29;82.99
81641;BME280;74020;50.722;-1.944;2024-01-11T04:17:12;102883.58;;;2.32;82.51
81641;BME280;74020;50.722;-1.944;2024-01-11T04:19:39;102883.85;;;2.21;83.57
81641;BME280;74020;50.722;-1.944;2024-01-11T04:22:04;102890.86;;;2.24;82.53
81641;BME280;74020;50.722;-1.944;2024-01-11T04:24:29;102890.10;;;2.20;84.20
81641;BME280;74020;50.722;-1.944;2024-01-11T04:26:54;102893.21;;;2.18;83.83
81641;BME280;74020;50.722;-1.944;2024-01-11T04:29:20;102890.92;;;1.88;84.73
81641;BME280;74020;50.722;-1.944;2024-01-11T04:31:46;102891.42;;;1.99;84.80
81641;BME280;74020;50.722;-1.944;2024-01-11T04:34:11;102887.41;;;1.91;84.96
81641;BME280;74020;50.722;-1.944;2024-01-11T04:36:37;102889.40;;;1.81;85.66
81641;BME280;74020;50.722;-1.944;2024-01-11T04:39:02;102897.99;;;1.68;86.02
81641;BME280;74020;50.722;-1.944;2024-01-11T04:41:28;102893.26;;;1.85;86.00
81641;BME280;74020;50.722;-1.944;2024-01-11T04:43:53;102893.96;;;1.89;85.12
81641;BME280;74020;50.722;-1.944;2024-01-11T04:46:20;102894.44;;;1.95;84.32
81641;BME280;74020;50.722;-1.944;2024-01-11T04:48:45;102895.17;;;1.97;84.33
81641;BME280;74020;50.722;-1.944;2024-01-11T04:51:11;102900.16;;;2.02;85.69
81641;BME280;74020;50.722;-1.944;2024-01-11T04:53:37;102906.45;;;1.90;85.00
81641;BME280;74020;50.722;-1.944;2024-01-11T04:56:01;102904.03;;;2.01;84.80
81641;BME280;74020;50.722;-1.944;2024-01-11T04:58:26;102908.88;;;1.86;85.88
81641;BME280;74020;50.722;-1.944;2024-01-11T05:00:52;102909.37;;;1.70;87.62
81641;BME280;74020;50.722;-1.944;2024-01-11T05:03:17;102912.99;;;1.83;85.93
81641;BME280;74020;50.722;-1.944;2024-01-11T05:05:43;102912.50;;;1.76;86.88
81641;BME280;74020;50.722;-1.944;2024-01-11T05:08:09;102910.88;;;1.67;87.03
81641;BME280;74020;50.722;-1.944;2024-01-11T05:10:36;102918.28;;;1.73;87.58
81641;BME280;74020;50.722;-1.944;2024-01-11T05:13:00;102912.58;;;1.65;87.69
81641;BME280;74020;50.722;-1.944;2024-01-11T05:15:25;102915.94;;;1.72;87.49
81641;BME280;74020;50.722;-1.944;2024-01-11T05:17:51;102916.09;;;1.68;87.33
81641;BME280;74020;50.722;-1.944;2024-01-11T05:20:16;102918.05;;;1.63;88.28
81641;BME280;74020;50.722;-1.944;2024-01-11T05:22:42;102915.85;;;1.86;86.67
81641;BME280;74020;50.722;-1.944;2024-01-11T05:25:08;102921.13;;;1.66;87.76
81641;BME280;74020;50.722;-1.944;2024-01-11T05:27:34;102918.02;;;1.86;86.84
81641;BME280;74020;50.722;-1.944;2024-01-11T05:29:59;102919.07;;;1.72;88.15
81641;BME280;74020;50.722;-1.944;2024-01-11T05:32:25;102918.40;;;1.73;87.57
81641;BME280;74020;50.722;-1.944;2024-01-11T05:34:50;102921.25;;;1.60;88.00
81641;BME280;74020;50.722;-1.944;2024-01-11T05:37:16;102923.67;;;1.42;89.14
81641;BME280;74020;50.722;-1.944;2024-01-11T05:39:41;102923.28;;;1.38;89.59
81641;BME280;74020;50.722;-1.944;2024-01-11T05:42:07;102924.47;;;1.53;89.24
81641;BME280;74020;50.722;-1.944;2024-01-11T05:44:32;102921.81;;;1.49;89.25
81641;BME280;74020;50.722;-1.944;2024-01-11T05:46:57;102927.89;;;1.60;88.64
81641;BME280;74020;50.722;-1.944;2024-01-11T05:49:23;102924.15;;;1.53;89.42
81641;BME280;74020;50.722;-1.944;2024-01-11T05:51:49;102922.95;;;1.46;89.23
81641;BME280;74020;50.722;-1.944;2024-01-11T05:54:14;102928.74;;;1.41;90.36
81641;BME280;74020;50.722;-1.944;2024-01-11T05:56:40;102927.91;;;1.29;89.97
81641;BME280;74020;50.722;-1.944;2024-01-11T05:59:06;102932.29;;;1.26;90.75
81641;BME280;74020;50.722;-1.944;2024-01-11T06:01:31;102934.32;;;1.37;90.74
81641;BME280;74020;50.722;-1.944;2024-01-11T06:03:57;102937.84;;;1.40;90.23
81641;BME280;74020;50.722;-1.944;2024-01-11T06:06:22;102936.60;;;1.52;89.30
81641;BME280;74020;50.722;-1.944;2024-01-11T06:08:48;102938.79;;;1.45;89.87
81641;BME280;74020;50.722;-1.944;2024-01-11T06:11:13;102938.08;;;1.30;90.21
81641;BME280;74020;50.722;-1.944;2024-01-11T06:13:40;102938.88;;;1.35;90.59
81641;BME280;74020;50.722;-1.944;2024-01-11T06:16:04;102949.04;;;1.41;90.49
81641;BME280;74020;50.722;-1.944;2024-01-11T06:18:30;102958.28;;;1.22;91.35
81641;BME280;74020;50.722;-1.944;2024-01-11T06:20:56;102958.43;;;1.27;90.65
81641;BME280;74020;50.722;-1.944;2024-01-11T06:23:23;102950.85;;;1.26;91.03
81641;BME280;74020;50.722;-1.944;2024-01-11T06:25:47;102945.19;;;1.29;90.93
81641;BME280;74020;50.722;-1.944;2024-01-11T06:28:12;102945.46;;;1.15;91.72
81641;BME280;74020;50.722;-1.944;2024-01-11T06:30:38;102944.85;;;1.01;91.83
81641;BME280;74020;50.722;-1.944;2024-01-11T06:33:03;102950.62;;;0.98;92.42
81641;BME280;74020;50.722;-1.944;2024-01-11T06:35:28;102951.07;;;0.86;93.69
81641;BME280;74020;50.722;-1.944;2024-01-11T06:37:53;102950.87;;;0.89;93.01
81641;BME280;74020;50.722;-1.944;2024-01-11T06:40:20;102961.19;;;0.90;93.05
81641;BME280;74020;50.722;-1.944;2024-01-11T06:42:45;102953.96;;;0.77;94.38
81641;BME280;74020;50.722;-1.944;2024-01-11T06:45:10;102956.64;;;0.86;93.92
81641;BME280;74020;50.722;-1.944;2024-01-11T06:47:36;102965.51;;;0.95;95.31
81641;BME280;74020;50.722;-1.944;2024-01-11T06:50:02;102966.19;;;0.99;93.60
81641;BME280;74020;50.722;-1.944;2024-01-11T06:52:27;102964.45;;;0.81;94.47
81641;BME280;74020;50.722;-1.944;2024-01-11T06:54:52;102972.05;;;0.88;94.90
81641;BME280;74020;50.722;-1.944;2024-01-11T06:57:18;102975.39;;;0.83;94.82
81641;BME280;74020;50.722;-1.944;2024-01-11T06:59:43;102971.03;;;0.91;93.86
81641;BME280;74020;50.722;-1.944;2024-01-11T07:02:09;102974.64;;;0.85;93.62
81641;BME280;74020;50.722;-1.944;2024-01-11T07:04:34;102984.68;;;0.76;94.81
81641;BME280;74020;50.722;-1.944;2024-01-11T07:07:00;102988.06;;;0.75;94.63
81641;BME280;74020;50.722;-1.944;2024-01-11T07:09:25;102993.43;;;0.64;95.23
81641;BME280;74020;50.722;-1.944;2024-01-11T07:11:51;102996.40;;;0.69;95.47
81641;BME280;74020;50.722;-1.944;2024-01-11T07:14:17;102995.30;;;0.81;95.19
81641;BME280;74020;50.722;-1.944;2024-01-11T07:16:42;103001.03;;;0.69;95.77
81641;BME280;74020;50.722;-1.944;2024-01-11T07:19:08;103005.74;;;0.77;95.49
81641;BME280;74020;50.722;-1.944;2024-01-11T07:21:33;103011.74;;;0.82;95.78
81641;BME280;74020;50.722;-1.944;2024-01-11T07:23:59;103013.15;;;0.83;95.83
81641;BME280;74020;50.722;-1.944;2024-01-11T07:26:25;103019.17;;;0.77;95.56
81641;BME280;74020;50.722;-1.944;2024-01-11T07:28:50;103022.39;;;0.79;95.45
81641;BME280;74020;50.722;-1.944;2024-01-11T07:31:16;103024.76;;;0.85;95.54
81641;BME280;74020;50.722;-1.944;2024-01-11T07:33:41;103024.03;;;0.70;96.02
81641;BME280;74020;50.722;-1.944;2024-01-11T07:36:07;103025.97;;;0.70;95.92
81641;BME280;74020;50.722;-1.944;2024-01-11T07:38:33;103030.85;;;0.68;96.61
81641;BME280;74020;50.722;-1.944;2024-01-11T07:40:58;103028.90;;;0.68;96.18
81641;BME280;74020;50.722;-1.944;2024-01-11T07:43:23;103032.44;;;0.70;96.34
81641;BME280;74020;50.722;-1.944;2024-01-11T07:45:49;103032.90;;;0.66;95.90
81641;BME280;74020;50.722;-1.944;2024-01-11T07:48:14;103038.60;;;0.66;96.11
81641;BME280;74020;50.722;-1.944;2024-01-11T07:50:39;103045.12;;;0.65;96.21
81641;BME280;74020;50.722;-1.944;2024-01-11T07:53:05;103046.17;;;0.71;96.44
81641;BME280;74020;50.722;-1.944;2024-01-11T07:55:31;103049.31;;;0.67;96.11
81641;BME280;74020;50.722;-1.944;2024-01-11T07:57:56;103056.88;;;0.65;96.32
81641;BME280;74020;50.722;-1.944;2024-01-11T08:00:22;103062.24;;;0.66;96.60
81641;BME280;74020;50.722;-1.944;2024-01-11T08:02:47;103065.96;;;0.57;96.55
81641;BME280;74020;50.722;-1.944;2024-01-11T08:05:12;103067.29;;;0.65;96.30
81641;BME280;74020;50.722;-1.944;2024-01-11T08:07:38;103071.03;;;0.62;96.59
81641;BME280;74020;50.722;-1.944;2024-01-11T08:10:04;103070.54;;;0.53;96.86
81641;BME280;74020;50.722;-1.944;2024-01-11T08:12:28;103073.85;;;0.69;95.95
81641;BME280;74020;50.722;-1.944;2024-01-11T08:14:54;103075.61;;;0.62;96.94
81641;BME280;74020;50.722;-1.944;2024-01-11T08:17:19;103078.06;;;0.60;97.24
81641;BME280;74020;50.722;-1.944;2024-01-11T08:19:44;103086.32;;;0.67;96.62
81641;BME280;74020;50.722;-1.944;2024-01-11T08:22:10;103083.03;;;0.56;96.83
81641;BME280;74020;50.722;-1.944;2024-01-11T08:24:36;103079.92;;;0.59;96.80
81641;BME280;74020;50.722;-1.944;2024-01-11T08:27:01;103081.39;;;0.46;97.73
81641;BME280;74020;50.722;-1.944;2024-01-11T08:29:26;103079.76;;;0.53;97.54
81641;BME280;74020;50.722;-1.944;2024-01-11T08:31:52;103080.77;;;0.65;97.08
81641;BME280;74020;50.722;-1.944;2024-01-11T08:34:17;103081.62;;;0.62;97.68
81641;BME280;74020;50.722;-1.944;2024-01-11T08:36:43;103087.87;;;0.51;97.36
81641;BME280;74020;50.722;-1.944;2024-01-11T08:39:08;103093.05;;;0.58;97.80
81641;BME280;74020;50.722;-1.944;2024-01-11T08:41:34;103101.20;;;0.56;97.66
81641;BME280;74020;50.722;-1.944;2024-01-11T08:43:59;103099.68;;;0.69;97.21
81641;BME280;74020;50.722;-1.944;2024-01-11T08:46:24;103105.31;;;0.72;97.41
81641;BME280;74020;50.722;-1.944;2024-01-11T08:48:50;103106.78;;;0.70;96.46
81641;BME280;74020;50.722;-1.944;2024-01-11T08:51:15;103108.48;;;0.76;96.78
81641;BME280;74020;50.722;-1.944;2024-01-11T08:53:41;103107.02;;;0.71;96.97
81641;BME280;74020;50.722;-1.944;2024-01-11T08:56:06;103107.82;;;0.84;97.16
81641;BME280;74020;50.722;-1.944;2024-01-11T08:58:31;103108.03;;;0.73;96.55
81641;BME280;74020;50.722;-1.944;2024-01-11T09:00:57;103110.85;;;0.92;96.56
81641;BME280;74020;50.722;-1.944;2024-01-11T09:03:22;103114.44;;;0.93;96.11
81641;BME280;74020;50.722;-1.944;2024-01-11T09:05:47;103121.34;;;0.81;97.43
81641;BME280;74020;50.722;-1.944;2024-01-11T09:08:14;103122.06;;;0.87;96.52
81641;BME280;74020;50.722;-1.944;2024-01-11T09:10:38;103127.37;;;0.97;96.27
81641;BME280;74020;50.722;-1.944;2024-01-11T09:13:03;103132.47;;;1.00;96.44
81641;BME280;74020;50.722;-1.944;2024-01-11T09:15:29;103130.50;;;1.04;95.42
81641;BME280;74020;50.722;-1.944;2024-01-11T09:17:55;103128.48;;;1.12;95.45
81641;BME280;74020;50.722;-1.944;2024-01-11T09:20:20;103131.05;;;1.18;95.47
81641;BME280;74020;50.722;-1.944;2024-01-11T09:22:47;103132.48;;;1.12;95.03
81641;BME280;74020;50.722;-1.944;2024-01-11T09:25:12;103131.79;;;1.13;95.68
81641;BME280;74020;50.722;-1.944;2024-01-11T09:27:37;103126.61;;;1.25;95.27
81641;BME280;74020;50.722;-1.944;2024-01-11T09:30:03;103129.86;;;1.21;95.48
81641;BME280;74020;50.722;-1.944;2024-01-11T09:32:28;103139.37;;;1.28;95.67
81641;BME280;74020;50.722;-1.944;2024-01-11T09:34:55;103142.43;;;1.37;95.34
81641;BME280;74020;50.722;-1.944;2024-01-11T09:37:20;103151.15;;;1.24;95.31
81641;BME280;74020;50.722;-1.944;2024-01-11T09:39:45;103150.75;;;1.35;95.50
81641;BME280;74020;50.722;-1.944;2024-01-11T09:42:10;103152.58;;;1.37;95.56
81641;BME280;74020;50.722;-1.944;2024-01-11T09:44:36;103164.41;;;1.37;95.03
81641;BME280;74020;50.722;-1.944;2024-01-11T09:47:01;103162.12;;;1.41;94.69
81641;BME280;74020;50.722;-1.944;2024-01-11T09:49:26;103165.00;;;1.47;94.76
81641;BME280;74020;50.722;-1.944;2024-01-11T09:51:51;103164.00;;;1.58;93.52
81641;BME280;74020;50.722;-1.944;2024-01-11T09:54:19;103162.90;;;1.55;94.45
81641;BME280;74020;50.722;-1.944;2024-01-11T09:56:43;103168.00;;;1.56;94.35
81641;BME280;74020;50.722;-1.944;2024-01-11T09:59:08;103171.14;;;1.63;94.26
81641;BME280;74020;50.722;-1.944;2024-01-11T10:01:33;103175.53;;;1.67;94.09
81641;BME280;74020;50.722;-1.944;2024-01-11T10:03:59;103176.79;;;1.68;93.84
81641;BME280;74020;50.722;-1.944;2024-01-11T10:06:25;103176.66;;;1.74;93.82
81641;BME280;74020;50.722;-1.944;2024-01-11T10:08:49;103176.21;;;1.86;93.28
81641;BME280;74020;50.722;-1.944;2024-01-11T10:11:15;103173.79;;;1.90;92.70
81641;BME280;74020;50.722;-1.944;2024-01-11T10:13:40;103175.93;;;1.99;92.39
81641;BME280;74020;50.722;-1.944;2024-01-11T10:16:07;103173.46;;;1.95;92.16
81641;BME280;74020;50.722;-1.944;2024-01-11T10:18:31;103174.76;;;1.98;92.68
81641;BME280;74020;50.722;-1.944;2024-01-11T10:20:57;103171.66;;;1.96;92.43
81641;BME280;74020;50.722;-1.944;2024-01-11T10:23:23;103178.29;;;2.09;92.37
81641;BME280;74020;50.722;-1.944;2024-01-11T10:25:48;103182.17;;;2.03;92.43
81641;BME280;74020;50.722;-1.944;2024-01-11T10:28:14;103181.58;;;2.14;92.14
81641;BME280;74020;50.722;-1.944;2024-01-11T10:30:40;103186.63;;;2.13;92.28
81641;BME280;74020;50.722;-1.944;2024-01-11T10:33:07;103187.14;;;2.19;91.64
81641;BME280;74020;50.722;-1.944;2024-01-11T10:35:30;103186.39;;;2.25;91.24
81641;BME280;74020;50.722;-1.944;2024-01-11T10:37:57;103190.75;;;2.39;90.95
81641;BME280;74020;50.722;-1.944;2024-01-11T10:40:21;103195.88;;;2.53;90.37
81641;BME280;74020;50.722;-1.944;2024-01-11T10:42:52;103203.94;;;2.55;90.41
81641;BME280;74020;50.722;-1.944;2024-01-11T10:45:15;103205.69;;;2.57;89.90
81641;BME280;74020;50.722;-1.944;2024-01-11T10:47:39;103200.71;;;2.66;89.73
81641;BME280;74020;50.722;-1.944;2024-01-11T10:50:07;103195.60;;;2.73;89.27
81641;BME280;74020;50.722;-1.944;2024-01-11T10:52:36;103191.73;;;2.78;89.07
81641;BME280;74020;50.722;-1.944;2024-01-11T10:54:56;103190.43;;;2.87;88.44
81641;BME280;74020;50.722;-1.944;2024-01-11T10:57:20;103188.69;;;2.94;87.92
81641;BME280;74020;50.722;-1.944;2024-01-11T10:59:48;103191.88;;;2.93;87.74
81641;BME280;74020;50.722;-1.944;2024-01-11T11:02:12;103193.21;;;3.02;88.08
81641;BME280;74020;50.722;-1.944;2024-01-11T11:04:38;103192.03;;;3.06;87.57
81641;BME280;74020;50.722;-1.944;2024-01-11T11:07:03;103191.33;;;3.06;86.89
81641;BME280;74020;50.722;-1.944;2024-01-11T11:09:30;103184.40;;;3.03;86.29
81641;BME280;74020;50.722;-1.944;2024-01-11T11:11:57;103186.67;;;3.06;86.26
81641;BME280;74020;50.722;-1.944;2024-01-11T11:14:20;103188.06;;;3.05;86.18
81641;BME280;74020;50.722;-1.944;2024-01-11T11:16:45;103194.55;;;3.18;85.76
81641;BME280;74020;50.722;-1.944;2024-01-11T11:19:10;103202.46;;;3.29;85.69
81641;BME280;74020;50.722;-1.944;2024-01-11T11:21:42;103201.05;;;3.36;85.16
81641;BME280;74020;50.722;-1.944;2024-01-11T11:24:02;103202.40;;;3.47;84.93
81641;BME280;74020;50.722;-1.944;2024-01-11T11:26:27;103202.42;;;3.45;84.24
81641;BME280;74020;50.722;-1.944;2024-01-11T11:28:53;103197.62;;;3.46;84.45
81641;BME280;74020;50.722;-1.944;2024-01-11T11:33:43;103200.91;;;3.49;84.21
81641;BME280;74020;50.722;-1.944;2024-01-11T11:36:12;103197.76;;;3.60;83.55
81641;BME280;74020;50.722;-1.944;2024-01-11T11:38:35;103194.67;;;3.52;83.37
81641;BME280;74020;50.722;-1.944;2024-01-11T11:41:01;103201.19;;;3.69;83.65
81641;BME280;74020;50.722;-1.944;2024-01-11T11:43:27;103200.14;;;3.76;83.95
81641;BME280;74020;50.722;-1.944;2024-01-11T11:45:52;103205.39;;;3.92;82.88
81641;BME280;74020;50.722;-1.944;2024-01-11T11:50:43;103209.55;;;4.04;82.06
81641;BME280;74020;50.722;-1.944;2024-01-11T11:53:11;103202.99;;;4.13;82.18
81641;BME280;74020;50.722;-1.944;2024-01-11T11:55:34;103206.67;;;4.22;81.44
81641;BME280;74020;50.722;-1.944;2024-01-11T11:57:59;103205.30;;;4.25;80.89
81641;BME280;74020;50.722;-1.944;2024-01-11T12:00:26;103200.21;;;4.16;81.05
81641;BME280;74020;50.722;-1.944;2024-01-11T12:02:52;103206.20;;;4.23;80.61
81641;BME280;74020;50.722;-1.944;2024-01-11T12:05:17;103199.21;;;4.10;80.87
81641;BME280;74020;50.722;-1.944;2024-01-11T12:07:42;103200.62;;;4.19;80.67
81641;BME280;74020;50.722;-1.944;2024-01-11T12:10:07;103198.23;;;4.14;80.83
81641;BME280;74020;50.722;-1.944;2024-01-11T12:12:34;103198.18;;;4.24;81.42
81641;BME280;74020;50.722;-1.944;2024-01-11T12:14:59;103198.81;;;4.17;81.60
81641;BME280;74020;50.722;-1.944;2024-01-11T12:17:24;103199.65;;;4.39;81.52
81641;BME280;74020;50.722;-1.944;2024-01-11T12:19:51;103198.49;;;4.43;80.67
81641;BME280;74020;50.722;-1.944;2024-01-11T12:22:15;103201.74;;;4.42;81.50
81641;BME280;74020;50.722;-1.944;2024-01-11T12:24:41;103203.48;;;4.53;80.69
81641;BME280;74020;50.722;-1.944;2024-01-11T12:27:07;103202.29;;;4.43;80.94
81641;BME280;74020;50.722;-1.944;2024-01-11T12:29:32;103208.71;;;4.35;81.63
81641;BME280;74020;50.722;-1.944;2024-01-11T12:31:58;103203.77;;;4.34;81.48
81641;BME280;74020;50.722;-1.944;2024-01-11T12:34:24;103205.98;;;4.53;81.06
81641;BME280;74020;50.722;-1.944;2024-01-11T12:36:49;103205.41;;;4.56;80.49
81641;BME280;74020;50.722;-1.944;2024-01-11T12:39:16;103207.13;;;4.49;80.36
81641;BME280;74020;50.722;-1.944;2024-01-11T12:41:41;103204.20;;;4.55;80.10
81641;BME280;74020;50.722;-1.944;2024-01-11T12:44:06;103206.29;;;4.46;80.62
81641;BME280;74020;50.722;-1.944;2024-01-11T12:46:31;103204.12;;;4.52;80.59